Time;durP1;ratioP1;P1;durP2;ratioP2;P2;SDS_P1;SDS_P2;PMS_P1;PMS_P2;Temp;Humidity;BMP_temperature;BMP_pressure;BME280_temperature;BME280_humidity;BME280_pressure;Samples;Min_cycle;Max_cycle;Signal;HPM_P1;HPM_P2
2020/12/28 00:01:40;;;;;;;8.98;5.63;;;;;;;2.49;65.57;97771.72;5035892;28;20291;-73
2020/12/28 00:04:05;;;;;;;10.02;5.80;;;;;;;2.49;65.31;97770.84;5053376;28;20020;-73
2020/12/28 00:06:31;;;;;;;9.63;5.72;;;;;;;2.52;65.96;97766.47;5053707;28;20029;-73
2020/12/28 00:08:56;;;;;;;8.85;5.47;;;;;;;2.51;65.88;97759.50;5035501;28;20496;-73
2020/12/28 00:11:21;;;;;;;8.40;5.32;;;;;;;2.51;66.46;97762.13;5053596;28;20120;-73
2020/12/28 00:13:47;;;;;;;9.20;5.55;;;;;;;2.55;66.18;97748.16;5044315;28;20037;-72
2020/12/28 00:16:13;;;;;;;8.90;5.10;;;;;;;2.59;66.10;97754.16;5053655;28;20028;-72
2020/12/28 00:18:39;;;;;;;8.50;4.88;;;;;;;2.61;66.01;97742.00;5053292;28;20033;-73
2020/12/28 00:21:04;;;;;;;8.40;5.35;;;;;;;2.57;66.51;97733.38;5053359;28;20060;-73
2020/12/28 00:23:29;;;;;;;8.27;4.95;;;;;;;2.67;66.22;97741.00;5053096;28;20487;-73
2020/12/28 00:25:55;;;;;;;7.22;4.38;;;;;;;2.69;66.39;97742.69;5035361;28;20037;-72
2020/12/28 00:28:20;;;;;;;6.88;4.32;;;;;;;2.67;66.40;97730.59;5053307;28;20033;-73
2020/12/28 00:30:45;;;;;;;9.38;5.05;;;;;;;2.73;66.14;97738.31;5053084;28;20052;-73
2020/12/28 00:33:10;;;;;;;7.05;4.10;;;;;;;2.75;65.86;97737.38;5035189;28;20490;-73
2020/12/28 00:35:36;;;;;;;7.25;4.93;;;;;;;2.77;65.97;97738.19;5053140;28;20488;-73
2020/12/28 00:38:01;;;;;;;8.60;4.70;;;;;;;2.72;66.84;97721.78;5053357;28;20036;-73
2020/12/28 00:40:26;;;;;;;7.32;4.43;;;;;;;2.75;66.47;97726.97;5052844;28;20037;-73
2020/12/28 00:42:52;;;;;;;8.35;4.43;;;;;;;2.74;66.92;97717.41;5052734;28;20037;-73
2020/12/28 00:45:17;;;;;;;7.82;4.47;;;;;;;2.75;66.38;97726.09;5052935;28;20087;-72
2020/12/28 00:47:43;;;;;;;7.32;4.05;;;;;;;2.78;66.19;97726.06;5035016;28;20040;-73
2020/12/28 00:50:08;;;;;;;7.55;5.03;;;;;;;2.75;66.60;97723.47;5052701;28;20036;-73
2020/12/28 00:52:34;;;;;;;6.68;4.28;;;;;;;2.77;66.59;97711.28;5034748;28;20066;-73
2020/12/28 00:55:00;;;;;;;7.30;4.45;;;;;;;2.76;66.58;97713.03;5034868;28;20041;-74
2020/12/28 00:57:26;;;;;;;8.50;4.53;;;;;;;2.85;66.49;97707.63;5018453;28;20465;-74
2020/12/28 00:59:51;;;;;;;8.73;4.95;;;;;;;2.80;66.61;97708.63;5034681;28;20040;-73
2020/12/28 01:02:25;;;;;;;8.52;5.50;;;;;;;2.79;66.70;97706.91;5034612;28;20029;-73
2020/12/28 01:04:59;;;;;;;7.30;4.85;;;;;;;2.77;66.66;97704.34;5034750;28;20033;-73
2020/12/28 01:07:30;;;;;;;7.13;4.55;;;;;;;2.79;66.79;97709.53;5034758;28;20037;-73
2020/12/28 01:10:03;;;;;;;7.60;4.53;;;;;;;2.80;66.91;97701.69;5034370;28;20037;-74
2020/12/28 01:12:33;;;;;;;7.90;4.78;;;;;;;2.79;67.11;97696.50;5034357;28;20075;-73
2020/12/28 01:15:05;;;;;;;9.82;5.40;;;;;;;2.82;67.13;97699.03;5034451;28;20446;-74
2020/12/28 01:17:39;;;;;;;8.80;5.22;;;;;;;2.78;67.23;97684.38;5034517;28;20040;-73
2020/12/28 01:20:13;;;;;;;8.60;4.60;;;;;;;2.80;67.02;97693.88;5027245;28;20071;-73
2020/12/28 01:22:38;;;;;;;7.15;4.72;;;;;;;2.77;67.35;97704.34;5051942;28;20032;-73
2020/12/28 01:25:04;;;;;;;8.48;5.03;;;;;;;2.78;67.15;97697.41;5052160;28;20029;-73
2020/12/28 01:27:39;;;;;;;7.90;4.25;;;;;;;2.69;67.48;97701.03;5034282;28;20043;-73
2020/12/28 01:30:06;;;;;;;9.98;5.70;;;;;;;2.72;67.81;97713.97;5043926;28;20029;-73
2020/12/28 01:32:32;;;;;;;8.20;5.35;;;;;;;2.75;67.84;97711.34;5034026;28;20418;-73
2020/12/28 01:35:29;;;;;;;7.25;4.55;;;;;;;2.71;67.63;97724.44;5029300;28;20036;-73
2020/12/28 01:37:55;;;;;;;8.05;4.60;;;;;;;2.73;67.38;97720.94;5033947;28;20029;-73
2020/12/28 01:40:20;;;;;;;8.00;5.00;;;;;;;2.74;67.38;97730.44;5017591;28;20558;-73
2020/12/28 01:42:45;;;;;;;7.53;4.82;;;;;;;2.76;67.51;97733.03;5033716;28;20024;-73
2020/12/28 01:45:11;;;;;;;7.85;5.10;;;;;;;2.81;67.30;97726.84;5033915;28;20171;-73
2020/12/28 01:47:39;;;;;;;8.10;4.82;;;;;;;2.82;67.61;97719.88;5051801;28;20407;-74
2020/12/28 01:50:04;;;;;;;7.95;5.10;;;;;;;2.85;67.22;97722.41;5033674;28;20029;-73
2020/12/28 01:52:30;;;;;;;7.88;5.30;;;;;;;2.87;67.27;97715.44;5033462;28;20043;-73
2020/12/28 01:54:56;;;;;;;8.77;4.85;;;;;;;2.92;67.11;97718.81;5051668;28;20078;-72
2020/12/28 01:57:25;;;;;;;8.95;4.90;;;;;;;2.92;67.27;97726.63;5033841;28;20509;-73
2020/12/28 01:59:59;;;;;;;7.88;4.57;;;;;;;3.00;66.74;97734.28;5033591;28;20407;-73
2020/12/28 02:02:40;;;;;;;7.10;4.43;;;;;;;3.11;66.72;97737.50;5051298;28;20495;-73
2020/12/28 02:05:06;;;;;;;7.32;4.68;;;;;;;3.19;66.67;97733.00;5033471;28;20029;-73
2020/12/28 02:07:37;;;;;;;6.93;4.35;;;;;;;3.18;66.21;97715.66;5033539;28;20553;-73
2020/12/28 02:10:09;;;;;;;6.93;4.40;;;;;;;3.23;65.98;97707.75;5050789;28;20067;-73
2020/12/28 02:12:36;;;;;;;;;;;;;;;3.16;66.42;97707.00;5033786;28;20419;-74
2020/12/28 02:15:02;;;;;;;7.80;4.90;;;;;;;3.18;66.25;97713.03;5051345;28;19916;-73
2020/12/28 02:17:48;;;;;;;8.32;4.65;;;;;;;3.24;66.08;97709.44;5050645;28;20499;-72
2020/12/28 02:20:24;;;;;;;7.50;4.85;;;;;;;3.22;65.98;97701.69;5030223;28;20120;-74
2020/12/28 02:22:49;;;;;;;9.18;4.60;;;;;;;3.23;66.27;97698.16;5030845;28;20065;-73
2020/12/28 02:25:14;;;;;;;8.30;4.88;;;;;;;3.19;66.31;97680.88;5033349;28;20471;-73
2020/12/28 02:27:40;;;;;;;6.70;4.38;;;;;;;3.23;66.13;97679.06;5033322;28;20029;-73
2020/12/28 02:30:06;;;;;;;7.93;4.72;;;;;;;3.23;66.19;97682.53;5025042;28;20116;-72
2020/12/28 02:32:42;;;;;;;7.38;4.85;;;;;;;3.24;65.99;97689.44;5032960;28;20075;-73
2020/12/28 02:35:18;;;;;;;8.30;5.28;;;;;;;3.23;66.26;97687.75;5033376;28;20618;-74
2020/12/28 02:37:49;;;;;;;6.40;4.32;;;;;;;3.21;66.24;97692.13;5033152;28;20025;-73
2020/12/28 02:40:15;;;;;;;6.90;4.20;;;;;;;3.23;66.57;97685.13;5033107;28;20028;-73
2020/12/28 02:42:50;;;;;;;8.40;4.45;;;;;;;3.29;65.98;97673.72;5032909;28;20411;-73
2020/12/28 02:45:33;;;;;;;8.38;4.75;;;;;;;3.28;66.26;97674.59;5051015;28;20099;-74
2020/12/28 02:48:17;;;;;;;7.70;4.95;;;;;;;3.32;66.23;97663.19;5044430;28;20090;-73
2020/12/28 02:51:01;;;;;;;7.32;4.55;;;;;;;3.33;66.06;97656.22;5050905;28;20461;-73
2020/12/28 02:53:45;;;;;;;7.25;4.25;;;;;;;3.28;66.15;97646.78;5050974;28;20443;-73
2020/12/28 02:56:29;;;;;;;6.88;4.63;;;;;;;3.29;65.98;97663.28;5051099;28;20047;-72
2020/12/28 02:59:13;;;;;;;7.70;4.57;;;;;;;3.32;66.05;97659.75;5043586;28;20155;-73
2020/12/28 03:01:57;;;;;;;7.22;4.57;;;;;;;3.34;65.81;97652.75;5050920;28;20047;-73
2020/12/28 03:04:41;;;;;;;7.78;4.18;;;;;;;3.37;65.96;97647.47;5051059;28;20403;-73
2020/12/28 03:07:25;;;;;;;6.93;4.50;;;;;;;3.29;66.23;97645.03;5050874;28;20048;-74
2020/12/28 03:10:09;;;;;;;9.50;4.75;;;;;;;3.25;66.15;97638.19;5043117;28;20553;-73
2020/12/28 03:12:53;;;;;;;7.90;4.93;;;;;;;3.14;66.57;97633.19;5050597;28;20067;-74
2020/12/28 03:15:37;;;;;;;7.80;4.40;;;;;;;3.12;66.33;97635.00;5050863;28;20043;-73
2020/12/28 03:18:32;;;;;;;9.43;5.00;;;;;;;3.14;66.25;97635.81;4985950;28;20038;-72
2020/12/28 03:21:16;;;;;;;8.35;4.47;;;;;;;3.19;66.19;97628.75;5044347;28;20106;-74
2020/12/28 03:24:00;;;;;;;7.93;4.82;;;;;;;3.14;66.51;97640.16;5054306;28;20048;-73
2020/12/28 03:26:44;;;;;;;9.60;4.88;;;;;;;3.09;66.82;97622.03;5054767;28;20044;-73
2020/12/28 03:29:32;;;;;;;8.98;5.32;;;;;;;3.11;66.91;97624.59;5054446;28;20419;-73
2020/12/28 03:32:16;;;;;;;7.57;4.82;;;;;;;3.14;66.70;97614.97;5047357;28;20107;-73
2020/12/28 03:35:00;;;;;;;6.20;3.75;;;;;;;3.19;66.45;97607.03;5054621;28;20095;-73
2020/12/28 03:37:44;;;;;;;8.40;4.75;;;;;;;3.16;66.54;97597.53;5054327;28;20052;-73
2020/12/28 03:40:28;;;;;;;8.60;5.15;;;;;;;3.17;66.82;97609.69;5054246;28;20051;-73
2020/12/28 03:43:12;;;;;;;7.53;4.47;;;;;;;3.15;66.48;97614.09;5046759;28;20132;-73
2020/12/28 03:45:55;;;;;;;8.52;4.88;;;;;;;3.04;66.78;97600.47;5054116;28;20059;-74
2020/12/28 03:48:39;;;;;;;7.88;5.03;;;;;;;3.07;66.95;97598.63;5054128;28;20134;-73
2020/12/28 03:51:24;;;;;;;8.50;4.65;;;;;;;3.11;66.72;97603.75;5048128;28;20059;-73
2020/12/28 03:54:21;;;;;;;8.52;5.10;;;;;;;3.12;66.69;97584.63;5009309;28;20445;-73
2020/12/28 03:57:05;;;;;;;8.50;5.00;;;;;;;3.10;66.68;97581.22;5053910;28;20052;-73
2020/12/28 03:59:49;;;;;;;6.88;4.32;;;;;;;3.06;66.80;97570.84;5054056;28;20090;-74
2020/12/28 04:02:52;;;;;;;7.85;4.47;;;;;;;3.05;66.60;97571.75;5053667;28;20052;-73
2020/12/28 04:05:36;;;;;;;7.65;5.03;;;;;;;3.04;66.96;97577.84;5053702;28;20060;-73
2020/12/28 04:08:20;;;;;;;8.40;5.18;;;;;;;3.00;66.87;97565.78;5047348;28;20048;-74
2020/12/28 04:11:05;;;;;;;8.93;5.55;;;;;;;3.03;66.99;97565.69;5053387;28;20040;-73
2020/12/28 04:13:47;;;;;;;6.93;4.50;;;;;;;2.99;67.51;97553.66;5035503;28;20533;-73
2020/12/28 04:16:16;;;;;;;7.35;4.88;;;;;;;3.02;66.98;97547.50;5052237;28;20033;-73
2020/12/28 04:18:41;;;;;;;7.65;5.13;;;;;;;3.02;67.42;97548.38;5053522;28;20048;-73
2020/12/28 04:21:07;;;;;;;8.45;5.30;;;;;;;3.00;66.91;97538.88;5035426;28;20033;-73
2020/12/28 04:23:32;;;;;;;8.70;5.45;;;;;;;3.00;66.93;97550.16;5053163;28;20055;-72
2020/12/28 04:25:57;;;;;;;11.35;6.35;;;;;;;2.95;67.58;97556.34;5050490;28;20037;-74
2020/12/28 04:28:23;;;;;;;9.95;6.10;;;;;;;2.95;67.66;97552.00;5053338;28;20041;-73
2020/12/28 04:30:49;;;;;;;8.90;5.43;;;;;;;2.99;67.64;97553.66;5053062;28;20044;-73
2020/12/28 04:33:14;;;;;;;9.25;5.15;;;;;;;3.00;67.08;97550.16;5034607;28;20534;-73
2020/12/28 04:35:40;;;;;;;8.35;5.18;;;;;;;3.01;67.21;97557.09;5053148;28;20037;-74
2020/12/28 04:38:05;;;;;;;7.25;4.60;;;;;;;3.04;67.28;97556.16;5053002;28;20035;-73
2020/12/28 04:40:30;;;;;;;8.02;4.55;;;;;;;3.02;67.65;97558.78;5035122;28;20403;-72
2020/12/28 04:42:56;;;;;;;8.10;4.95;;;;;;;3.07;67.27;97556.94;5052827;28;20499;-74
2020/12/28 04:45:21;;;;;;;8.00;5.50;;;;;;;3.12;67.28;97548.13;5052836;28;20090;-73
2020/12/28 04:47:47;;;;;;;8.05;5.22;;;;;;;3.10;67.34;97534.31;5052933;28;20047;-72
2020/12/28 04:50:14;;;;;;;8.52;5.53;;;;;;;3.12;67.09;97538.59;5052731;28;20075;-74
2020/12/28 04:52:40;;;;;;;8.52;4.90;;;;;;;3.12;67.49;97532.50;5050505;28;20036;-72
2020/12/28 04:55:05;;;;;;;8.35;5.10;;;;;;;3.12;67.63;97527.28;5052577;28;20161;-73
2020/12/28 04:57:30;;;;;;;9.07;5.63;;;;;;;3.14;67.35;97525.50;5052771;28;20388;-73
2020/12/28 04:59:56;;;;;;;11.85;6.10;;;;;;;3.11;67.55;97525.59;5052521;28;20044;-73
2020/12/28 05:02:25;;;;;;;10.07;5.25;;;;;;;3.11;67.41;97522.97;5052378;28;20445;-74
2020/12/28 05:04:51;;;;;;;10.38;6.13;;;;;;;3.15;67.44;97525.47;5052458;28;20090;-74
2020/12/28 05:07:17;;;;;;;8.48;5.65;;;;;;;3.18;67.39;97521.94;5034693;28;20450;-73
2020/12/28 05:09:42;;;;;;;9.80;5.50;;;;;;;3.18;67.52;97516.72;5034536;28;20052;-73
2020/12/28 05:12:08;;;;;;;8.40;5.40;;;;;;;3.17;67.26;97520.22;5052368;28;20081;-72
2020/12/28 05:14:34;;;;;;;9.55;5.20;;;;;;;3.20;67.19;97520.16;5052348;28;20035;-72
2020/12/28 05:17:05;;;;;;;9.93;5.68;;;;;;;3.19;67.21;97528.84;5052356;28;20562;-73
2020/12/28 05:19:33;;;;;;;8.40;5.18;;;;;;;3.22;67.02;97534.88;5052189;28;20045;-73
2020/12/28 05:21:59;;;;;;;7.45;4.75;;;;;;;3.26;67.24;97530.41;5065121;28;20040;-73
2020/12/28 05:24:24;;;;;;;9.85;5.43;;;;;;;3.23;67.39;97531.34;5057861;28;20040;-73
2020/12/28 05:26:50;;;;;;;7.65;4.65;;;;;;;3.26;67.16;97530.41;5051687;28;20041;-74
2020/12/28 05:29:18;;;;;;;8.85;5.13;;;;;;;3.33;66.97;97523.28;5051967;28;20127;-74
2020/12/28 05:31:45;;;;;;;9.25;5.70;;;;;;;3.37;66.89;97524.94;5052115;28;20033;-73
2020/12/28 05:34:22;;;;;;;8.43;5.30;;;;;;;3.32;66.56;97530.25;5051845;28;20033;-73
2020/12/28 05:36:52;;;;;;;9.60;5.85;;;;;;;3.38;66.30;97511.00;5051994;28;20033;-73
2020/12/28 05:39:22;;;;;;;9.75;5.85;;;;;;;3.40;66.81;97512.66;5051950;28;20021;-73
2020/12/28 05:42:06;;;;;;;9.65;5.97;;;;;;;3.41;66.41;97511.78;5051815;28;20487;-73
2020/12/28 05:44:32;;;;;;;8.93;5.60;;;;;;;3.43;66.64;97504.78;5050972;28;20075;-73
2020/12/28 05:47:10;;;;;;;7.68;4.82;;;;;;;3.42;66.53;97504.81;5033890;28;20041;-73
2020/12/28 05:49:37;;;;;;;9.02;5.28;;;;;;;3.42;66.52;97497.84;5051728;28;20037;-73
2020/12/28 05:52:04;;;;;;;9.57;5.97;;;;;;;3.42;66.52;97495.25;5051531;28;20037;-73
2020/12/28 05:54:30;;;;;;;8.98;5.47;;;;;;;3.42;66.29;97495.25;5051646;28;20029;-73
2020/12/28 05:56:56;;;;;;;9.80;5.85;;;;;;;3.38;66.60;97498.84;5051630;28;20529;-73
2020/12/28 05:59:22;;;;;;;9.52;5.53;;;;;;;3.34;66.98;97502.41;5051532;28;20127;-73
2020/12/28 06:01:48;;;;;;;8.93;5.15;;;;;;;3.34;66.41;97498.97;5051425;28;20036;-73
2020/12/28 06:04:15;;;;;;;9.45;6.03;;;;;;;3.33;66.54;97492.91;5033423;28;20410;-73
2020/12/28 06:06:42;;;;;;;8.93;5.75;;;;;;;3.34;66.72;97502.41;5033558;28;20048;-73
2020/12/28 06:09:08;;;;;;;8.98;5.68;;;;;;;3.31;67.03;97501.66;5043152;28;20392;-72
2020/12/28 06:11:34;;;;;;;9.98;5.60;;;;;;;3.27;66.88;97503.44;5033609;28;20040;-73
2020/12/28 06:13:59;;;;;;;9.55;6.05;;;;;;;3.27;66.86;97503.44;5051103;28;20138;-73
2020/12/28 06:16:24;;;;;;;8.98;5.25;;;;;;;3.22;66.71;97494.91;5051304;28;20724;-74
2020/12/28 06:18:57;;;;;;;8.13;5.13;;;;;;;3.11;67.33;97495.16;5051230;28;20048;-73
2020/12/28 06:21:33;;;;;;;8.70;5.47;;;;;;;3.02;67.76;97483.22;5051267;28;20931;-73
2020/12/28 06:23:58;;;;;;;9.20;5.80;;;;;;;2.91;67.34;97485.25;5033155;28;20095;-73
2020/12/28 06:26:24;;;;;;;8.27;5.25;;;;;;;2.87;67.69;97477.53;5050723;28;20029;-73
2020/12/28 06:28:49;;;;;;;9.20;6.00;;;;;;;2.83;68.03;97474.16;5051066;28;20087;-73
2020/12/28 06:31:14;;;;;;;9.10;6.00;;;;;;;2.77;68.12;97459.50;5050975;28;20033;-73
2020/12/28 06:33:50;;;;;;;8.95;5.88;;;;;;;2.67;68.29;97459.78;5041488;28;20090;-74
2020/12/28 06:36:16;;;;;;;9.18;5.72;;;;;;;2.64;68.56;97453.75;5044120;28;20368;-73
2020/12/28 06:38:42;;;;;;;7.05;4.38;;;;;;;2.62;68.78;97460.75;5051115;28;20395;-73
2020/12/28 06:41:07;;;;;;;8.98;5.50;;;;;;;2.61;68.30;97461.63;5042817;28;20029;-73
2020/12/28 06:43:40;;;;;;;8.13;5.10;;;;;;;2.60;68.54;97457.31;5050781;28;20086;-73
2020/12/28 06:46:05;;;;;;;11.77;5.97;;;;;;;2.57;68.67;97462.59;5050890;28;20037;-73
2020/12/28 06:48:31;;;;;;;8.70;5.28;;;;;;;2.55;68.86;97474.81;5050958;28;20090;-72
2020/12/28 06:51:05;;;;;;;7.63;4.78;;;;;;;2.48;69.59;97477.56;5050875;28;20082;-73
2020/12/28 06:53:31;;;;;;;9.40;5.50;;;;;;;2.48;69.10;97473.22;5050791;28;20037;-73
2020/12/28 06:56:06;;;;;;;9.32;5.60;;;;;;;2.48;69.31;97478.44;5052537;28;20279;-74
2020/12/28 06:58:31;;;;;;;9.30;5.75;;;;;;;2.49;69.18;97481.88;5055057;28;20040;-73
2020/12/28 07:00:57;;;;;;;8.98;5.05;;;;;;;2.46;69.37;97484.56;5036887;28;20029;-72
2020/12/28 07:03:23;;;;;;;9.15;5.78;;;;;;;2.48;69.30;97481.03;5036770;28;20475;-73
2020/12/28 07:05:48;;;;;;;8.50;4.70;;;;;;;2.50;69.09;97497.47;5054734;28;20025;-73
2020/12/28 07:08:24;;;;;;;9.95;5.38;;;;;;;2.53;69.89;97500.00;5054834;28;20463;-73
2020/12/28 07:11:02;;;;;;;7.53;5.07;;;;;;;2.55;69.83;97500.84;5054537;28;20028;-73
2020/12/28 07:13:28;;;;;;;7.55;4.75;;;;;;;2.55;69.33;97506.03;5036360;28;20040;-73
2020/12/28 07:16:06;;;;;;;7.63;5.30;;;;;;;2.59;69.49;97510.31;5066344;28;20025;-72
2020/12/28 07:18:32;;;;;;;8.95;5.05;;;;;;;2.59;69.54;97518.13;5059425;28;20077;-73
2020/12/28 07:20:58;;;;;;;9.32;5.03;;;;;;;2.61;69.26;97518.91;5054503;28;20059;-73
2020/12/28 07:23:24;;;;;;;10.25;5.68;;;;;;;2.58;69.14;97523.34;5054220;28;20395;-73
2020/12/28 07:26:05;;;;;;;8.57;5.93;;;;;;;2.49;69.72;97513.13;5054416;28;20207;-72
2020/12/28 07:28:31;;;;;;;8.80;5.22;;;;;;;2.54;69.48;97525.16;5063785;28;20462;-73
2020/12/28 07:30:59;;;;;;;7.68;4.53;;;;;;;2.56;69.32;97522.50;5062233;28;20124;-73
2020/12/28 07:33:24;;;;;;;8.60;4.75;;;;;;;2.57;69.30;97525.09;5035719;28;20154;-73
2020/12/28 07:36:08;;;;;;;8.60;4.88;;;;;;;2.57;69.50;97529.47;5054237;28;20082;-74
2020/12/28 07:38:33;;;;;;;8.30;4.45;;;;;;;2.58;69.21;97532.00;5054525;28;20395;-73
2020/12/28 07:40:59;;;;;;;7.18;3.75;;;;;;;2.55;69.85;97534.69;5054082;28;20037;-74
2020/12/28 07:43:26;;;;;;;7.07;4.05;;;;;;;2.57;69.52;97535.50;5053934;28;20044;-74
2020/12/28 07:45:52;;;;;;;8.02;4.93;;;;;;;2.60;69.97;97542.41;5053934;28;20075;-73
2020/12/28 07:48:20;;;;;;;9.48;4.88;;;;;;;2.58;69.52;97537.22;5054093;28;20792;-73
2020/12/28 07:50:53;;;;;;;7.63;4.75;;;;;;;2.61;69.68;97537.13;5053910;28;20492;-73
2020/12/28 07:53:25;;;;;;;8.45;5.00;;;;;;;2.66;69.31;97542.25;5053799;28;20506;-73
2020/12/28 07:56:06;;;;;;;7.32;4.57;;;;;;;2.70;69.53;97537.81;5036137;28;20119;-73
2020/12/28 07:58:46;;;;;;;8.48;4.85;;;;;;;2.72;69.30;97536.03;5053759;28;20032;-73
2020/12/28 08:01:28;;;;;;;8.90;4.70;;;;;;;2.73;68.84;97524.75;5046070;28;20063;-73
2020/12/28 08:04:00;;;;;;;8.45;4.78;;;;;;;2.76;68.63;97527.28;5053554;28;20064;-73
2020/12/28 08:06:25;;;;;;;8.32;4.20;;;;;;;2.76;69.05;97529.88;5053608;28;20044;-73
2020/12/28 08:08:59;;;;;;;7.03;4.20;;;;;;;2.82;68.80;97527.97;5052680;28;20107;-73
2020/12/28 08:11:28;;;;;;;7.90;4.68;;;;;;;2.82;68.81;97527.13;5053718;28;20044;-73
2020/12/28 08:13:53;;;;;;;6.75;4.38;;;;;;;2.83;68.51;97521.06;5053252;28;20096;-73
2020/12/28 08:16:18;;;;;;;7.10;4.60;;;;;;;2.82;68.81;97524.53;5053551;28;20487;-73
2020/12/28 08:18:47;;;;;;;7.40;4.20;;;;;;;2.90;68.40;97526.97;5053400;28;20055;-73
2020/12/28 08:21:13;;;;;;;7.22;4.20;;;;;;;2.97;68.15;97524.16;5053362;28;20449;-73
2020/12/28 08:23:39;;;;;;;6.80;4.25;;;;;;;2.97;68.31;97523.31;5053136;28;20024;-73
2020/12/28 08:26:25;;;;;;;6.72;4.25;;;;;;;2.97;68.18;97526.78;5053376;28;20395;-73
2020/12/28 08:28:53;;;;;;;8.00;4.65;;;;;;;3.03;68.12;97526.63;5035470;28;20106;-74
2020/12/28 08:31:34;;;;;;;7.55;4.07;;;;;;;3.12;67.87;97522.97;5035207;28;20040;-73
2020/12/28 08:34:02;;;;;;;5.68;3.80;;;;;;;3.15;67.55;97525.47;5052915;28;20126;-73
2020/12/28 08:36:28;;;;;;;6.40;4.28;;;;;;;3.20;67.62;97525.38;5053281;28;20045;-72
2020/12/28 08:38:54;;;;;;;6.30;4.10;;;;;;;3.20;67.37;97525.38;5053094;28;20037;-73
2020/12/28 08:41:19;;;;;;;7.22;4.00;;;;;;;3.26;67.52;97530.41;5053406;28;20043;-73
2020/12/28 08:43:46;;;;;;;6.75;4.53;;;;;;;3.23;67.51;97530.50;5048749;28;20111;-73
2020/12/28 08:46:11;;;;;;;7.63;4.28;;;;;;;3.28;67.37;97539.91;5034985;28;20028;-73
2020/12/28 08:48:37;;;;;;;6.93;4.00;;;;;;;3.34;67.38;97544.13;5052930;28;20498;-73
2020/12/28 08:51:16;;;;;;;7.03;4.13;;;;;;;3.32;66.97;97543.28;5052857;28;20041;-73
2020/12/28 08:53:48;;;;;;;7.30;4.82;;;;;;;3.37;67.01;97549.25;5052660;28;20037;-73
2020/12/28 08:56:13;;;;;;;7.82;4.57;;;;;;;3.40;66.99;97558.75;5045438;28;20029;-73
2020/12/28 08:58:39;;;;;;;7.53;4.53;;;;;;;3.37;67.01;97559.69;5052633;28;20044;-73
2020/12/28 09:01:04;;;;;;;6.93;4.15;;;;;;;3.41;67.11;97561.31;5052664;28;20106;-74
2020/12/28 09:03:34;;;;;;;7.43;4.47;;;;;;;3.50;66.69;97560.22;5052425;28;20115;-73
2020/12/28 09:05:59;;;;;;;7.68;4.40;;;;;;;3.48;66.93;97552.47;5052573;28;20041;-73
2020/12/28 09:08:25;;;;;;;6.40;4.00;;;;;;;3.51;66.69;97552.38;5052524;28;20064;-72
2020/12/28 09:10:50;;;;;;;8.70;4.97;;;;;;;3.49;66.30;97546.34;5052433;28;20037;-73
2020/12/28 09:13:15;;;;;;;6.47;4.25;;;;;;;3.53;66.60;97538.44;5052083;28;20127;-73
2020/12/28 09:15:41;;;;;;;8.52;4.50;;;;;;;3.55;66.56;97534.91;5052414;28;20079;-73
2020/12/28 09:18:06;;;;;;;6.88;4.80;;;;;;;3.65;66.51;97538.13;5034432;28;20368;-73
2020/12/28 09:20:31;;;;;;;6.00;3.92;;;;;;;3.68;65.82;97536.28;5034328;28;20509;-72
2020/12/28 09:22:56;;;;;;;7.57;4.32;;;;;;;3.66;66.14;97524.19;5052056;28;20487;-73
2020/12/28 09:25:22;;;;;;;7.03;4.35;;;;;;;3.62;66.19;97527.78;5034269;28;20056;-73
2020/12/28 09:27:47;;;;;;;8.48;4.95;;;;;;;3.65;66.14;97525.94;5052055;28;20029;-73
2020/12/28 09:30:12;;;;;;;6.35;4.05;;;;;;;3.72;66.21;97524.88;5051991;28;20029;-73
2020/12/28 09:32:39;;;;;;;7.25;4.57;;;;;;;3.73;65.66;97525.72;5033438;28;20384;-73
2020/12/28 09:35:04;;;;;;;6.88;4.53;;;;;;;3.72;66.04;97524.00;5052021;28;20036;-73
2020/12/28 09:37:30;;;;;;;6.95;4.03;;;;;;;3.86;65.77;97526.25;5052005;28;20089;-72
2020/12/28 09:40:02;;;;;;;8.93;4.82;;;;;;;3.85;65.29;97516.69;5060269;28;20354;-74
2020/12/28 09:42:27;;;;;;;8.20;5.13;;;;;;;3.93;65.50;97517.38;5060050;28;20044;-74
2020/12/28 09:44:53;;;;;;;8.15;4.82;;;;;;;4.01;64.99;97515.41;5058870;28;20036;-74
2020/12/28 09:47:18;;;;;;;9.07;5.55;;;;;;;4.08;64.36;97505.63;5056780;28;20033;-74
2020/12/28 09:49:43;;;;;;;7.35;4.53;;;;;;;4.14;64.34;97505.47;5056819;28;20037;-74
2020/12/28 09:52:09;;;;;;;6.95;4.90;;;;;;;4.15;64.52;97502.81;5059870;28;20115;-74
2020/12/28 09:54:34;;;;;;;7.60;4.10;;;;;;;4.20;64.47;97500.06;5060011;28;20043;-73
2020/12/28 09:57:05;;;;;;;8.05;4.60;;;;;;;4.29;64.73;97494.56;5057583;28;20442;-75
2020/12/28 09:59:38;;;;;;;8.07;4.88;;;;;;;4.22;64.16;97485.22;5056381;28;20029;-74
2020/12/28 10:02:05;;;;;;;7.40;4.68;;;;;;;4.30;64.59;97491.06;5059362;28;20059;-74
2020/12/28 10:04:31;;;;;;;7.68;5.07;;;;;;;4.35;63.83;97490.94;5059863;28;20068;-74
2020/12/28 10:06:56;;;;;;;7.72;4.70;;;;;;;4.44;63.69;97500.25;5057949;28;20119;-74
2020/12/28 10:09:21;;;;;;;7.95;4.75;;;;;;;4.46;64.00;97493.22;5056239;28;20045;-74
2020/12/28 10:11:47;;;;;;;6.72;4.72;;;;;;;4.55;63.64;97500.75;5056857;28;20041;-73
2020/12/28 10:14:13;;;;;;;7.22;4.68;;;;;;;4.53;63.49;97495.59;5058318;28;20039;-75
2020/12/28 10:16:39;;;;;;;7.72;4.80;;;;;;;4.42;63.39;97499.44;5059700;28;20115;-73
2020/12/28 10:19:04;;;;;;;9.70;4.95;;;;;;;4.46;63.63;97496.69;5056419;28;20132;-74
2020/12/28 10:21:29;;;;;;;7.25;4.32;;;;;;;4.54;63.41;97510.38;5056140;28;20064;-74
2020/12/28 10:23:55;;;;;;;7.70;4.70;;;;;;;4.63;63.53;97506.59;5057561;28;20621;-75
2020/12/28 10:26:23;;;;;;;7.43;4.90;;;;;;;4.67;63.60;97513.47;5059425;28;20123;-75
2020/12/28 10:28:50;;;;;;;8.15;4.95;;;;;;;4.68;63.65;97512.53;5058564;28;20052;-74
2020/12/28 10:31:16;;;;;;;7.82;5.35;;;;;;;4.63;63.02;97514.44;5055886;28;20056;-74
2020/12/28 10:33:43;;;;;;;7.90;5.15;;;;;;;4.61;62.98;97500.56;5055019;28;20039;-74
2020/12/28 10:36:17;;;;;;;7.30;4.80;;;;;;;4.64;63.19;97500.50;5047755;28;20518;-74
2020/12/28 10:38:49;;;;;;;7.80;5.10;;;;;;;4.62;63.17;97502.28;5054342;28;20037;-74
2020/12/28 10:41:14;;;;;;;9.25;5.63;;;;;;;4.55;63.22;97491.16;5055248;28;20040;-74
2020/12/28 10:43:40;;;;;;;7.22;5.13;;;;;;;4.52;63.63;97506.09;5055437;28;20029;-74
2020/12/28 10:46:07;;;;;;;11.27;5.47;;;;;;;4.50;63.17;97502.66;5058758;28;20115;-74
2020/12/28 10:48:32;;;;;;;7.30;4.88;;;;;;;4.41;63.75;97510.78;5053117;28;20032;-73
2020/12/28 10:50:57;;;;;;;7.75;4.95;;;;;;;4.38;64.17;97509.97;5041230;28;20029;-74
2020/12/28 10:53:23;;;;;;;8.40;5.32;;;;;;;4.43;64.01;97503.75;5045531;28;20550;-74
2020/12/28 10:55:48;;;;;;;7.93;5.15;;;;;;;4.48;63.92;97502.72;5044790;28;20380;-74
2020/12/28 10:58:14;;;;;;;8.25;5.35;;;;;;;4.52;63.71;97501.72;5042133;28;20045;-74
2020/12/28 11:00:40;;;;;;;9.35;5.05;;;;;;;4.52;63.66;97490.41;5042006;28;20081;-74
2020/12/28 11:03:06;;;;;;;8.40;5.15;;;;;;;4.54;63.94;97499.06;5042340;28;20616;-74
2020/12/28 11:05:31;;;;;;;8.10;4.97;;;;;;;4.63;63.55;97498.78;5036518;28;20033;-73
2020/12/28 11:07:56;;;;;;;8.43;5.93;;;;;;;4.72;63.68;97493.28;5044161;28;20033;-74
2020/12/28 11:10:21;;;;;;;8.18;5.60;;;;;;;4.78;63.38;97500.91;5045315;28;20035;-74
2020/12/28 11:12:47;;;;;;;7.80;5.32;;;;;;;4.78;63.25;97490.47;5044498;28;20145;-74
2020/12/28 11:15:12;;;;;;;8.05;5.32;;;;;;;4.76;63.47;97486.19;5041874;28;20125;-75
2020/12/28 11:17:37;;;;;;;9.85;6.15;;;;;;;4.70;62.93;97487.25;5041707;28;20132;-75
2020/12/28 11:20:03;;;;;;;9.10;6.40;;;;;;;4.61;63.19;97491.00;5044450;28;20036;-74
2020/12/28 11:22:28;;;;;;;8.88;5.80;;;;;;;4.64;63.70;97503.13;5044966;28;20128;-75
2020/12/28 11:24:53;;;;;;;9.77;5.88;;;;;;;4.65;63.40;97498.75;5043607;28;20080;-74
2020/12/28 11:27:19;;;;;;;9.40;5.72;;;;;;;4.70;63.68;97494.22;5041631;28;20034;-75
2020/12/28 11:29:44;;;;;;;9.48;6.05;;;;;;;4.75;62.83;97487.94;5040317;28;20430;-75
2020/12/28 11:32:09;;;;;;;10.65;6.32;;;;;;;4.86;62.82;97481.53;5044843;28;20573;-75
2020/12/28 11:34:35;;;;;;;9.23;5.70;;;;;;;4.88;62.66;97475.34;5045120;28;20048;-75
2020/12/28 11:37:00;;;;;;;7.55;5.05;;;;;;;4.95;62.84;97483.84;5042476;28;20037;-75
2020/12/28 11:39:26;;;;;;;8.63;5.70;;;;;;;5.01;62.41;97484.50;5041130;28;20116;-75
2020/12/28 11:41:53;;;;;;;9.75;6.05;;;;;;;4.97;62.13;97480.25;5042566;28;20175;-75
2020/12/28 11:44:19;;;;;;;8.48;5.70;;;;;;;5.02;62.29;97488.81;5044465;28;20099;-74
2020/12/28 11:46:44;;;;;;;8.60;6.22;;;;;;;5.18;62.26;97490.94;5044463;28;20492;-75
2020/12/28 11:49:11;;;;;;;10.25;6.13;;;;;;;5.19;61.82;97490.91;5041137;28;20115;-75
2020/12/28 11:51:37;;;;;;;8.32;5.72;;;;;;;5.22;61.94;97482.09;5041247;28;20037;-75
2020/12/28 11:54:03;;;;;;;9.82;5.40;;;;;;;5.15;62.50;97486.66;5043525;28;20043;-75